sensor_id;sensor_type;location;lat;lon;timestamp;P1;durP1;ratioP1;P2;durP2;ratioP2
20271;SDS011;10295;49.812;9.866;2023-04-03T00:02:10;13.20;;;4.43;;
20271;SDS011;10295;49.812;9.866;2023-04-03T00:04:37;9.30;;;4.10;;
20271;SDS011;10295;49.812;9.866;2023-04-03T00:07:04;10.37;;;4.30;;
20271;SDS011;10295;49.812;9.866;2023-04-03T00:09:31;9.97;;;4.50;;
20271;SDS011;10295;49.812;9.866;2023-04-03T00:11:58;11.13;;;4.23;;
20271;SDS011;10295;49.812;9.866;2023-04-03T00:14:26;14.40;;;4.70;;
20271;SDS011;10295;49.812;9.866;2023-04-03T00:16:53;10.63;;;4.40;;
20271;SDS011;10295;49.812;9.866;2023-04-03T00:19:20;15.73;;;5.17;;
20271;SDS011;10295;49.812;9.866;2023-04-03T00:21:48;11.93;;;4.70;;
20271;SDS011;10295;49.812;9.866;2023-04-03T00:24:15;13.07;;;4.87;;
20271;SDS011;10295;49.812;9.866;2023-04-03T00:26:42;12.97;;;4.70;;
20271;SDS011;10295;49.812;9.866;2023-04-03T00:29:09;11.10;;;5.00;;
20271;SDS011;10295;49.812;9.866;2023-04-03T00:31:36;9.90;;;4.60;;
20271;SDS011;10295;49.812;9.866;2023-04-03T00:34:03;14.80;;;4.30;;
20271;SDS011;10295;49.812;9.866;2023-04-03T00:36:30;10.43;;;4.63;;
20271;SDS011;10295;49.812;9.866;2023-04-03T00:38:58;15.70;;;5.00;;
20271;SDS011;10295;49.812;9.866;2023-04-03T00:41:25;13.67;;;4.63;;
20271;SDS011;10295;49.812;9.866;2023-04-03T00:43:52;15.27;;;4.63;;
20271;SDS011;10295;49.812;9.866;2023-04-03T00:46:19;11.37;;;4.10;;
20271;SDS011;10295;49.812;9.866;2023-04-03T00:48:47;11.40;;;4.30;;
20271;SDS011;10295;49.812;9.866;2023-04-03T00:51:19;10.37;;;4.10;;
20271;SDS011;10295;49.812;9.866;2023-04-03T00:56:18;11.83;;;4.00;;
20271;SDS011;10295;49.812;9.866;2023-04-03T00:58:51;11.97;;;4.10;;
20271;SDS011;10295;49.812;9.866;2023-04-03T01:01:21;8.47;;;3.80;;
20271;SDS011;10295;49.812;9.866;2023-04-03T01:03:49;9.33;;;3.90;;
20271;SDS011;10295;49.812;9.866;2023-04-03T01:06:18;9.83;;;3.67;;
20271;SDS011;10295;49.812;9.866;2023-04-03T01:08:48;10.20;;;3.40;;
20271;SDS011;10295;49.812;9.866;2023-04-03T01:11:16;12.13;;;3.60;;
20271;SDS011;10295;49.812;9.866;2023-04-03T01:13:43;9.97;;;3.77;;
20271;SDS011;10295;49.812;9.866;2023-04-03T01:16:11;9.20;;;3.50;;
20271;SDS011;10295;49.812;9.866;2023-04-03T01:18:38;10.50;;;3.50;;
20271;SDS011;10295;49.812;9.866;2023-04-03T01:23:42;12.47;;;3.73;;
20271;SDS011;10295;49.812;9.866;2023-04-03T01:26:12;7.53;;;3.10;;
20271;SDS011;10295;49.812;9.866;2023-04-03T01:28:40;12.30;;;4.07;;
20271;SDS011;10295;49.812;9.866;2023-04-03T01:31:12;8.40;;;3.43;;
20271;SDS011;10295;49.812;9.866;2023-04-03T01:33:41;9.17;;;3.47;;
20271;SDS011;10295;49.812;9.866;2023-04-03T01:36:09;13.80;;;3.60;;
20271;SDS011;10295;49.812;9.866;2023-04-03T01:38:37;10.20;;;3.67;;
20271;SDS011;10295;49.812;9.866;2023-04-03T01:41:04;10.87;;;3.40;;
20271;SDS011;10295;49.812;9.866;2023-04-03T01:43:31;10.20;;;3.37;;
20271;SDS011;10295;49.812;9.866;2023-04-03T01:45:58;9.70;;;3.37;;
20271;SDS011;10295;49.812;9.866;2023-04-03T01:48:25;10.40;;;3.83;;
20271;SDS011;10295;49.812;9.866;2023-04-03T01:50:53;10.03;;;3.80;;
20271;SDS011;10295;49.812;9.866;2023-04-03T01:53:20;10.87;;;3.43;;
20271;SDS011;10295;49.812;9.866;2023-04-03T01:55:48;13.13;;;3.20;;
20271;SDS011;10295;49.812;9.866;2023-04-03T01:58:15;10.93;;;3.50;;
20271;SDS011;10295;49.812;9.866;2023-04-03T02:00:42;11.67;;;3.50;;
20271;SDS011;10295;49.812;9.866;2023-04-03T02:03:09;9.23;;;3.67;;
20271;SDS011;10295;49.812;9.866;2023-04-03T02:05:37;10.37;;;3.73;;
20271;SDS011;10295;49.812;9.866;2023-04-03T02:08:04;10.83;;;3.07;;
20271;SDS011;10295;49.812;9.866;2023-04-03T02:10:32;10.63;;;3.37;;
20271;SDS011;10295;49.812;9.866;2023-04-03T02:12:59;10.90;;;3.80;;
20271;SDS011;10295;49.812;9.866;2023-04-03T02:15:26;8.17;;;3.20;;
20271;SDS011;10295;49.812;9.866;2023-04-03T02:17:53;10.97;;;3.50;;
20271;SDS011;10295;49.812;9.866;2023-04-03T02:20:20;9.10;;;3.30;;
20271;SDS011;10295;49.812;9.866;2023-04-03T02:22:48;9.63;;;3.20;;
20271;SDS011;10295;49.812;9.866;2023-04-03T02:25:15;9.67;;;3.17;;
20271;SDS011;10295;49.812;9.866;2023-04-03T02:27:43;9.47;;;3.60;;
20271;SDS011;10295;49.812;9.866;2023-04-03T02:30:11;10.23;;;3.13;;
20271;SDS011;10295;49.812;9.866;2023-04-03T02:32:38;11.43;;;3.43;;
20271;SDS011;10295;49.812;9.866;2023-04-03T02:35:07;9.40;;;3.47;;
20271;SDS011;10295;49.812;9.866;2023-04-03T02:37:34;8.93;;;3.13;;
20271;SDS011;10295;49.812;9.866;2023-04-03T02:40:02;9.10;;;3.07;;
20271;SDS011;10295;49.812;9.866;2023-04-03T02:42:29;10.37;;;3.50;;
20271;SDS011;10295;49.812;9.866;2023-04-03T02:44:56;7.73;;;3.27;;
20271;SDS011;10295;49.812;9.866;2023-04-03T02:47:26;10.53;;;3.40;;
20271;SDS011;10295;49.812;9.866;2023-04-03T02:49:53;8.73;;;3.60;;
20271;SDS011;10295;49.812;9.866;2023-04-03T02:52:20;10.20;;;3.63;;
20271;SDS011;10295;49.812;9.866;2023-04-03T02:54:47;13.03;;;3.77;;
20271;SDS011;10295;49.812;9.866;2023-04-03T02:57:15;9.13;;;3.63;;
20271;SDS011;10295;49.812;9.866;2023-04-03T02:59:42;9.80;;;3.90;;
20271;SDS011;10295;49.812;9.866;2023-04-03T03:02:10;10.40;;;3.73;;
20271;SDS011;10295;49.812;9.866;2023-04-03T03:04:37;12.60;;;3.73;;
20271;SDS011;10295;49.812;9.866;2023-04-03T03:07:04;10.43;;;3.93;;
20271;SDS011;10295;49.812;9.866;2023-04-03T03:09:32;10.47;;;3.90;;
20271;SDS011;10295;49.812;9.866;2023-04-03T03:11:59;10.77;;;4.00;;
20271;SDS011;10295;49.812;9.866;2023-04-03T03:14:26;9.37;;;3.90;;
20271;SDS011;10295;49.812;9.866;2023-04-03T03:16:53;9.57;;;3.90;;
20271;SDS011;10295;49.812;9.866;2023-04-03T03:19:21;10.30;;;3.90;;
20271;SDS011;10295;49.812;9.866;2023-04-03T03:21:48;12.27;;;4.10;;
20271;SDS011;10295;49.812;9.866;2023-04-03T03:24:15;9.93;;;3.97;;
20271;SDS011;10295;49.812;9.866;2023-04-03T03:26:42;14.23;;;4.07;;
20271;SDS011;10295;49.812;9.866;2023-04-03T03:29:10;12.57;;;4.07;;
20271;SDS011;10295;49.812;9.866;2023-04-03T03:31:37;12.37;;;4.47;;
20271;SDS011;10295;49.812;9.866;2023-04-03T03:34:04;13.70;;;4.13;;
20271;SDS011;10295;49.812;9.866;2023-04-03T03:36:34;13.13;;;3.77;;
20271;SDS011;10295;49.812;9.866;2023-04-03T03:39:02;12.30;;;4.10;;
20271;SDS011;10295;49.812;9.866;2023-04-03T03:41:29;10.60;;;4.23;;
20271;SDS011;10295;49.812;9.866;2023-04-03T03:43:57;13.27;;;4.13;;
20271;SDS011;10295;49.812;9.866;2023-04-03T03:46:24;13.13;;;4.30;;
20271;SDS011;10295;49.812;9.866;2023-04-03T03:48:51;10.07;;;4.00;;
20271;SDS011;10295;49.812;9.866;2023-04-03T03:51:18;12.33;;;4.00;;
20271;SDS011;10295;49.812;9.866;2023-04-03T03:53:46;10.63;;;3.47;;
20271;SDS011;10295;49.812;9.866;2023-04-03T03:56:13;16.70;;;3.90;;
20271;SDS011;10295;49.812;9.866;2023-04-03T03:58:40;11.97;;;4.27;;
20271;SDS011;10295;49.812;9.866;2023-04-03T04:01:07;7.57;;;3.13;;
20271;SDS011;10295;49.812;9.866;2023-04-03T04:03:34;12.97;;;3.43;;
20271;SDS011;10295;49.812;9.866;2023-04-03T04:06:02;11.17;;;3.40;;
20271;SDS011;10295;49.812;9.866;2023-04-03T04:08:29;11.73;;;3.60;;
20271;SDS011;10295;49.812;9.866;2023-04-03T04:10:56;8.23;;;3.30;;
20271;SDS011;10295;49.812;9.866;2023-04-03T04:13:23;13.50;;;3.50;;
20271;SDS011;10295;49.812;9.866;2023-04-03T04:15:51;10.13;;;3.10;;
20271;SDS011;10295;49.812;9.866;2023-04-03T04:18:18;10.70;;;3.30;;
20271;SDS011;10295;49.812;9.866;2023-04-03T04:20:47;10.77;;;3.37;;
20271;SDS011;10295;49.812;9.866;2023-04-03T04:23:14;13.03;;;3.10;;
20271;SDS011;10295;49.812;9.866;2023-04-03T04:25:43;11.53;;;3.50;;
20271;SDS011;10295;49.812;9.866;2023-04-03T04:28:11;13.07;;;3.20;;
20271;SDS011;10295;49.812;9.866;2023-04-03T04:30:38;10.00;;;3.17;;
20271;SDS011;10295;49.812;9.866;2023-04-03T04:33:05;8.77;;;3.00;;
20271;SDS011;10295;49.812;9.866;2023-04-03T04:35:33;11.63;;;3.53;;
20271;SDS011;10295;49.812;9.866;2023-04-03T04:38:00;9.43;;;3.07;;
20271;SDS011;10295;49.812;9.866;2023-04-03T04:40:28;8.33;;;3.00;;
20271;SDS011;10295;49.812;9.866;2023-04-03T04:42:56;11.73;;;3.40;;
20271;SDS011;10295;49.812;9.866;2023-04-03T04:45:23;10.13;;;3.40;;
20271;SDS011;10295;49.812;9.866;2023-04-03T04:47:50;9.33;;;3.33;;
20271;SDS011;10295;49.812;9.866;2023-04-03T04:50:18;11.57;;;3.40;;
20271;SDS011;10295;49.812;9.866;2023-04-03T04:52:46;10.53;;;3.30;;
20271;SDS011;10295;49.812;9.866;2023-04-03T04:55:13;9.23;;;3.20;;
20271;SDS011;10295;49.812;9.866;2023-04-03T04:57:40;14.30;;;4.07;;
20271;SDS011;10295;49.812;9.866;2023-04-03T05:00:07;11.23;;;3.30;;
20271;SDS011;10295;49.812;9.866;2023-04-03T05:02:35;13.43;;;3.47;;
20271;SDS011;10295;49.812;9.866;2023-04-03T05:05:02;10.83;;;3.27;;
20271;SDS011;10295;49.812;9.866;2023-04-03T05:07:30;14.30;;;3.73;;
20271;SDS011;10295;49.812;9.866;2023-04-03T05:09:57;10.10;;;3.40;;
20271;SDS011;10295;49.812;9.866;2023-04-03T05:12:25;13.07;;;3.20;;
20271;SDS011;10295;49.812;9.866;2023-04-03T05:14:52;10.43;;;3.53;;
20271;SDS011;10295;49.812;9.866;2023-04-03T05:17:19;10.63;;;3.07;;
20271;SDS011;10295;49.812;9.866;2023-04-03T05:19:46;13.17;;;3.13;;
20271;SDS011;10295;49.812;9.866;2023-04-03T05:22:13;13.70;;;3.40;;
20271;SDS011;10295;49.812;9.866;2023-04-03T05:24:41;9.33;;;2.80;;
20271;SDS011;10295;49.812;9.866;2023-04-03T05:27:08;8.37;;;2.90;;
20271;SDS011;10295;49.812;9.866;2023-04-03T05:29:35;10.03;;;3.30;;
20271;SDS011;10295;49.812;9.866;2023-04-03T05:32:02;13.07;;;3.37;;
20271;SDS011;10295;49.812;9.866;2023-04-03T05:34:30;12.53;;;3.23;;
20271;SDS011;10295;49.812;9.866;2023-04-03T05:36:57;11.37;;;3.40;;
20271;SDS011;10295;49.812;9.866;2023-04-03T05:39:24;13.27;;;3.70;;
20271;SDS011;10295;49.812;9.866;2023-04-03T05:41:51;9.93;;;3.70;;
20271;SDS011;10295;49.812;9.866;2023-04-03T05:44:18;10.50;;;2.97;;
20271;SDS011;10295;49.812;9.866;2023-04-03T05:46:46;11.30;;;2.97;;
20271;SDS011;10295;49.812;9.866;2023-04-03T05:49:13;6.70;;;2.40;;
20271;SDS011;10295;49.812;9.866;2023-04-03T05:51:40;10.97;;;2.63;;
20271;SDS011;10295;49.812;9.866;2023-04-03T05:54:09;8.33;;;2.10;;
20271;SDS011;10295;49.812;9.866;2023-04-03T05:56:37;8.27;;;2.40;;
20271;SDS011;10295;49.812;9.866;2023-04-03T05:59:05;7.27;;;2.00;;
20271;SDS011;10295;49.812;9.866;2023-04-03T06:01:33;7.93;;;2.13;;
20271;SDS011;10295;49.812;9.866;2023-04-03T06:04:00;6.53;;;2.03;;
20271;SDS011;10295;49.812;9.866;2023-04-03T06:06:47;11.20;;;2.57;;
20271;SDS011;10295;49.812;9.866;2023-04-03T06:09:15;8.20;;;2.00;;
20271;SDS011;10295;49.812;9.866;2023-04-03T06:11:43;8.23;;;1.97;;
20271;SDS011;10295;49.812;9.866;2023-04-03T06:14:10;8.53;;;2.30;;
20271;SDS011;10295;49.812;9.866;2023-04-03T06:16:37;8.80;;;2.13;;
20271;SDS011;10295;49.812;9.866;2023-04-03T06:19:06;9.27;;;2.10;;
20271;SDS011;10295;49.812;9.866;2023-04-03T06:21:33;12.00;;;2.23;;
20271;SDS011;10295;49.812;9.866;2023-04-03T06:24:03;7.67;;;1.80;;
20271;SDS011;10295;49.812;9.866;2023-04-03T06:26:30;6.80;;;1.90;;
20271;SDS011;10295;49.812;9.866;2023-04-03T06:28:57;8.83;;;2.10;;
20271;SDS011;10295;49.812;9.866;2023-04-03T06:31:24;9.00;;;1.87;;
20271;SDS011;10295;49.812;9.866;2023-04-03T06:33:51;8.03;;;1.90;;
20271;SDS011;10295;49.812;9.866;2023-04-03T06:36:19;8.27;;;2.07;;
20271;SDS011;10295;49.812;9.866;2023-04-03T06:38:47;8.70;;;2.17;;
20271;SDS011;10295;49.812;9.866;2023-04-03T06:41:14;11.13;;;2.70;;
20271;SDS011;10295;49.812;9.866;2023-04-03T06:43:43;9.57;;;2.30;;
20271;SDS011;10295;49.812;9.866;2023-04-03T06:46:15;9.87;;;2.50;;
20271;SDS011;10295;49.812;9.866;2023-04-03T06:48:42;7.70;;;2.40;;
20271;SDS011;10295;49.812;9.866;2023-04-03T06:51:31;7.05;;;2.00;;
20271;SDS011;10295;49.812;9.866;2023-04-03T06:53:58;8.77;;;2.53;;
20271;SDS011;10295;49.812;9.866;2023-04-03T06:56:25;9.15;;;2.25;;
20271;SDS011;10295;49.812;9.866;2023-04-03T06:58:53;7.72;;;2.10;;
20271;SDS011;10295;49.812;9.866;2023-04-03T07:01:23;8.73;;;1.92;;
20271;SDS011;10295;49.812;9.866;2023-04-03T07:03:52;7.40;;;2.08;;
20271;SDS011;10295;49.812;9.866;2023-04-03T07:06:19;8.32;;;2.10;;
20271;SDS011;10295;49.812;9.866;2023-04-03T07:08:46;11.52;;;2.50;;
20271;SDS011;10295;49.812;9.866;2023-04-03T07:11:15;5.57;;;1.70;;
20271;SDS011;10295;49.812;9.866;2023-04-03T07:13:42;9.13;;;2.30;;
20271;SDS011;10295;49.812;9.866;2023-04-03T07:16:09;7.28;;;2.10;;
20271;SDS011;10295;49.812;9.866;2023-04-03T07:18:37;8.23;;;2.17;;
20271;SDS011;10295;49.812;9.866;2023-04-03T07:21:04;7.35;;;2.22;;
20271;SDS011;10295;49.812;9.866;2023-04-03T07:23:32;12.35;;;2.00;;
20271;SDS011;10295;49.812;9.866;2023-04-03T07:25:59;9.68;;;2.05;;
20271;SDS011;10295;49.812;9.866;2023-04-03T07:28:27;8.70;;;2.13;;
20271;SDS011;10295;49.812;9.866;2023-04-03T07:31:02;6.15;;;2.20;;
20271;SDS011;10295;49.812;9.866;2023-04-03T07:33:30;6.63;;;1.90;;
20271;SDS011;10295;49.812;9.866;2023-04-03T07:35:57;8.35;;;2.10;;
20271;SDS011;10295;49.812;9.866;2023-04-03T07:38:25;7.68;;;2.20;;
20271;SDS011;10295;49.812;9.866;2023-04-03T07:40:52;6.88;;;2.22;;
20271;SDS011;10295;49.812;9.866;2023-04-03T07:43:20;9.25;;;2.20;;
20271;SDS011;10295;49.812;9.866;2023-04-03T07:45:48;8.30;;;2.17;;
20271;SDS011;10295;49.812;9.866;2023-04-03T07:48:17;6.90;;;1.95;;
20271;SDS011;10295;49.812;9.866;2023-04-03T07:50:45;7.93;;;2.00;;
20271;SDS011;10295;49.812;9.866;2023-04-03T07:53:12;7.53;;;2.10;;
20271;SDS011;10295;49.812;9.866;2023-04-03T07:55:40;9.13;;;2.58;;
20271;SDS011;10295;49.812;9.866;2023-04-03T07:58:11;9.68;;;2.20;;
20271;SDS011;10295;49.812;9.866;2023-04-03T08:00:39;6.45;;;2.17;;
20271;SDS011;10295;49.812;9.866;2023-04-03T08:03:06;5.90;;;1.90;;
20271;SDS011;10295;49.812;9.866;2023-04-03T08:05:40;9.17;;;2.17;;
20271;SDS011;10295;49.812;9.866;2023-04-03T08:08:07;9.60;;;2.50;;
20271;SDS011;10295;49.812;9.866;2023-04-03T08:10:35;8.97;;;2.50;;
20271;SDS011;10295;49.812;9.866;2023-04-03T08:13:03;9.77;;;2.47;;
20271;SDS011;10295;49.812;9.866;2023-04-03T08:15:30;7.83;;;2.10;;
20271;SDS011;10295;49.812;9.866;2023-04-03T08:17:58;8.27;;;2.10;;
20271;SDS011;10295;49.812;9.866;2023-04-03T08:20:25;10.68;;;2.17;;
20271;SDS011;10295;49.812;9.866;2023-04-03T08:22:53;11.38;;;2.10;;
20271;SDS011;10295;49.812;9.866;2023-04-03T08:25:20;6.60;;;2.17;;
20271;SDS011;10295;49.812;9.866;2023-04-03T08:27:48;8.43;;;2.03;;
20271;SDS011;10295;49.812;9.866;2023-04-03T08:30:15;8.07;;;2.30;;
20271;SDS011;10295;49.812;9.866;2023-04-03T08:32:42;8.32;;;2.22;;
20271;SDS011;10295;49.812;9.866;2023-04-03T08:35:10;6.37;;;2.00;;
20271;SDS011;10295;49.812;9.866;2023-04-03T08:37:38;7.83;;;2.63;;
20271;SDS011;10295;49.812;9.866;2023-04-03T08:40:07;8.90;;;2.50;;
20271;SDS011;10295;49.812;9.866;2023-04-03T08:45:17;8.75;;;2.47;;
20271;SDS011;10295;49.812;9.866;2023-04-03T08:48:06;5.55;;;2.03;;
20271;SDS011;10295;49.812;9.866;2023-04-03T08:50:36;8.02;;;2.20;;
20271;SDS011;10295;49.812;9.866;2023-04-03T08:53:05;9.63;;;2.42;;
20271;SDS011;10295;49.812;9.866;2023-04-03T08:55:34;8.40;;;2.40;;
20271;SDS011;10295;49.812;9.866;2023-04-03T08:58:06;7.47;;;2.35;;
20271;SDS011;10295;49.812;9.866;2023-04-03T09:00:44;7.25;;;2.22;;
20271;SDS011;10295;49.812;9.866;2023-04-03T09:03:12;7.28;;;2.40;;
20271;SDS011;10295;49.812;9.866;2023-04-03T09:05:46;8.50;;;2.28;;
20271;SDS011;10295;49.812;9.866;2023-04-03T09:16:35;6.93;;;1.90;;
20271;SDS011;10295;49.812;9.866;2023-04-03T09:19:13;6.53;;;1.90;;
20271;SDS011;10295;49.812;9.866;2023-04-03T09:21:42;7.67;;;1.93;;
20271;SDS011;10295;49.812;9.866;2023-04-03T09:24:10;7.63;;;2.07;;
20271;SDS011;10295;49.812;9.866;2023-04-03T09:26:44;5.90;;;1.93;;
20271;SDS011;10295;49.812;9.866;2023-04-03T09:29:19;7.33;;;1.90;;
20271;SDS011;10295;49.812;9.866;2023-04-03T09:31:52;10.10;;;2.03;;
20271;SDS011;10295;49.812;9.866;2023-04-03T09:34:23;5.50;;;1.60;;
20271;SDS011;10295;49.812;9.866;2023-04-03T09:36:53;6.30;;;1.67;;
20271;SDS011;10295;49.812;9.866;2023-04-03T09:39:22;7.73;;;2.00;;
20271;SDS011;10295;49.812;9.866;2023-04-03T09:44:28;7.60;;;2.33;;
20271;SDS011;10295;49.812;9.866;2023-04-03T09:46:56;5.67;;;1.63;;
20271;SDS011;10295;49.812;9.866;2023-04-03T09:49:24;7.33;;;1.90;;
20271;SDS011;10295;49.812;9.866;2023-04-03T09:51:51;10.37;;;2.13;;
20271;SDS011;10295;49.812;9.866;2023-04-03T09:54:36;8.10;;;2.03;;
20271;SDS011;10295;49.812;9.866;2023-04-03T09:57:09;8.07;;;2.20;;
20271;SDS011;10295;49.812;9.866;2023-04-03T09:59:43;7.37;;;1.90;;
20271;SDS011;10295;49.812;9.866;2023-04-03T10:04:39;6.23;;;1.80;;
20271;SDS011;10295;49.812;9.866;2023-04-03T10:10:26;7.23;;;1.90;;
20271;SDS011;10295;49.812;9.866;2023-04-03T10:13:04;6.50;;;1.93;;
20271;SDS011;10295;49.812;9.866;2023-04-03T10:15:36;7.93;;;1.80;;
20271;SDS011;10295;49.812;9.866;2023-04-03T10:18:18;9.27;;;1.70;;
20271;SDS011;10295;49.812;9.866;2023-04-03T10:20:52;6.20;;;1.80;;
20271;SDS011;10295;49.812;9.866;2023-04-03T10:23:37;5.87;;;1.67;;
20271;SDS011;10295;49.812;9.866;2023-04-03T10:31:49;6.67;;;1.73;;
20271;SDS011;10295;49.812;9.866;2023-04-03T10:34:53;4.60;;;1.70;;
20271;SDS011;10295;49.812;9.866;2023-04-03T10:37:30;8.53;;;2.73;;
20271;SDS011;10295;49.812;9.866;2023-04-03T10:40:19;9.87;;;2.47;;
20271;SDS011;10295;49.812;9.866;2023-04-03T10:45:26;5.00;;;1.70;;
20271;SDS011;10295;49.812;9.866;2023-04-03T10:53:12;6.67;;;1.53;;
20271;SDS011;10295;49.812;9.866;2023-04-03T10:55:43;7.63;;;1.50;;
20271;SDS011;10295;49.812;9.866;2023-04-03T10:58:18;5.67;;;1.60;;
20271;SDS011;10295;49.812;9.866;2023-04-03T11:00:47;6.43;;;1.60;;
20271;SDS011;10295;49.812;9.866;2023-04-03T11:03:16;4.80;;;1.70;;
20271;SDS011;10295;49.812;9.866;2023-04-03T11:05:49;5.33;;;1.43;;
20271;SDS011;10295;49.812;9.866;2023-04-03T11:08:27;5.47;;;1.80;;
20271;SDS011;10295;49.812;9.866;2023-04-03T11:10:57;5.80;;;1.80;;
20271;SDS011;10295;49.812;9.866;2023-04-03T11:13:37;5.93;;;1.70;;
20271;SDS011;10295;49.812;9.866;2023-04-03T11:16:06;7.63;;;1.90;;
20271;SDS011;10295;49.812;9.866;2023-04-03T11:18:41;7.77;;;1.83;;
20271;SDS011;10295;49.812;9.866;2023-04-03T11:21:12;7.17;;;1.70;;
20271;SDS011;10295;49.812;9.866;2023-04-03T11:23:43;5.73;;;1.80;;
20271;SDS011;10295;49.812;9.866;2023-04-03T11:26:18;5.80;;;1.50;;
20271;SDS011;10295;49.812;9.866;2023-04-03T11:28:50;7.43;;;1.80;;
20271;SDS011;10295;49.812;9.866;2023-04-03T11:31:23;4.20;;;1.40;;
20271;SDS011;10295;49.812;9.866;2023-04-03T11:34:05;5.83;;;1.60;;
20271;SDS011;10295;49.812;9.866;2023-04-03T11:37:19;4.80;;;1.47;;
20271;SDS011;10295;49.812;9.866;2023-04-03T11:44:46;7.37;;;1.60;;
20271;SDS011;10295;49.812;9.866;2023-04-03T11:47:43;7.77;;;1.67;;
20271;SDS011;10295;49.812;9.866;2023-04-03T11:50:05;7.20;;;1.43;;
20271;SDS011;10295;49.812;9.866;2023-04-03T12:05:53;7.93;;;2.00;;
20271;SDS011;10295;49.812;9.866;2023-04-03T12:08:43;7.83;;;1.80;;
20271;SDS011;10295;49.812;9.866;2023-04-03T12:16:43;4.43;;;1.40;;
20271;SDS011;10295;49.812;9.866;2023-04-03T12:29:29;8.13;;;1.87;;
20271;SDS011;10295;49.812;9.866;2023-04-03T12:34:37;6.80;;;1.40;;
20271;SDS011;10295;49.812;9.866;2023-04-03T12:39:55;4.67;;;1.37;;
20271;SDS011;10295;49.812;9.866;2023-04-03T12:42:38;4.03;;;1.30;;
20271;SDS011;10295;49.812;9.866;2023-04-03T12:45:20;6.10;;;1.50;;
20271;SDS011;10295;49.812;9.866;2023-04-03T12:47:48;6.60;;;1.43;;
20271;SDS011;10295;49.812;9.866;2023-04-03T12:50:18;4.47;;;1.30;;
20271;SDS011;10295;49.812;9.866;2023-04-03T12:52:50;5.03;;;1.50;;
20271;SDS011;10295;49.812;9.866;2023-04-03T12:55:19;5.70;;;1.50;;
20271;SDS011;10295;49.812;9.866;2023-04-03T12:57:47;8.93;;;1.70;;
20271;SDS011;10295;49.812;9.866;2023-04-03T13:00:28;6.17;;;1.70;;
20271;SDS011;10295;49.812;9.866;2023-04-03T13:02:59;6.50;;;1.70;;
20271;SDS011;10295;49.812;9.866;2023-04-03T13:05:27;6.93;;;1.63;;
20271;SDS011;10295;49.812;9.866;2023-04-03T13:08:02;6.53;;;1.83;;
20271;SDS011;10295;49.812;9.866;2023-04-03T13:10:31;6.23;;;1.80;;
20271;SDS011;10295;49.812;9.866;2023-04-03T13:13:06;4.07;;;1.40;;
20271;SDS011;10295;49.812;9.866;2023-04-03T13:15:40;6.43;;;1.80;;
20271;SDS011;10295;49.812;9.866;2023-04-03T13:20:54;4.43;;;1.40;;
20271;SDS011;10295;49.812;9.866;2023-04-03T13:23:23;6.20;;;1.60;;
20271;SDS011;10295;49.812;9.866;2023-04-03T13:25:51;5.13;;;1.50;;
20271;SDS011;10295;49.812;9.866;2023-04-03T13:28:22;5.97;;;1.50;;
20271;SDS011;10295;49.812;9.866;2023-04-03T13:31:36;4.73;;;1.40;;
20271;SDS011;10295;49.812;9.866;2023-04-03T13:33:37;7.30;;;1.70;;
20271;SDS011;10295;49.812;9.866;2023-04-03T13:38:32;7.17;;;1.53;;
20271;SDS011;10295;49.812;9.866;2023-04-03T13:41:01;6.53;;;1.80;;
20271;SDS011;10295;49.812;9.866;2023-04-03T13:43:32;6.47;;;1.85;;
20271;SDS011;10295;49.812;9.866;2023-04-03T13:46:22;6.15;;;1.52;;
20271;SDS011;10295;49.812;9.866;2023-04-03T13:48:50;6.87;;;1.60;;
20271;SDS011;10295;49.812;9.866;2023-04-03T13:51:19;6.50;;;1.97;;
20271;SDS011;10295;49.812;9.866;2023-04-03T13:53:57;7.63;;;1.90;;
20271;SDS011;10295;49.812;9.866;2023-04-03T13:56:38;7.50;;;1.77;;
20271;SDS011;10295;49.812;9.866;2023-04-03T14:04:16;6.13;;;1.70;;
20271;SDS011;10295;49.812;9.866;2023-04-03T14:06:44;4.97;;;1.47;;
20271;SDS011;10295;49.812;9.866;2023-04-03T14:09:12;4.93;;;1.60;;
20271;SDS011;10295;49.812;9.866;2023-04-03T14:11:39;6.87;;;1.57;;
20271;SDS011;10295;49.812;9.866;2023-04-03T14:14:41;7.00;;;1.80;;
20271;SDS011;10295;49.812;9.866;2023-04-03T14:17:01;7.05;;;2.00;;
20271;SDS011;10295;49.812;9.866;2023-04-03T14:19:30;8.38;;;2.22;;
20271;SDS011;10295;49.812;9.866;2023-04-03T14:21:58;9.77;;;2.33;;
20271;SDS011;10295;49.812;9.866;2023-04-03T14:24:27;6.88;;;1.60;;
20271;SDS011;10295;49.812;9.866;2023-04-03T14:26:54;6.70;;;1.38;;
20271;SDS011;10295;49.812;9.866;2023-04-03T14:29:22;8.53;;;1.70;;
20271;SDS011;10295;49.812;9.866;2023-04-03T14:31:49;6.97;;;1.70;;
20271;SDS011;10295;49.812;9.866;2023-04-03T14:34:25;6.00;;;1.70;;
20271;SDS011;10295;49.812;9.866;2023-04-03T14:36:53;5.27;;;1.60;;
20271;SDS011;10295;49.812;9.866;2023-04-03T14:39:20;6.63;;;1.50;;
20271;SDS011;10295;49.812;9.866;2023-04-03T14:41:48;6.10;;;1.50;;
20271;SDS011;10295;49.812;9.866;2023-04-03T14:44:15;6.80;;;1.43;;
20271;SDS011;10295;49.812;9.866;2023-04-03T14:46:43;7.73;;;1.70;;
20271;SDS011;10295;49.812;9.866;2023-04-03T14:49:24;4.87;;;1.43;;
20271;SDS011;10295;49.812;9.866;2023-04-03T14:51:52;7.00;;;1.67;;
20271;SDS011;10295;49.812;9.866;2023-04-03T14:54:20;5.13;;;1.53;;
20271;SDS011;10295;49.812;9.866;2023-04-03T14:56:52;7.20;;;1.90;;
20271;SDS011;10295;49.812;9.866;2023-04-03T14:59:19;7.17;;;2.10;;
20271;SDS011;10295;49.812;9.866;2023-04-03T15:01:47;8.53;;;1.87;;
20271;SDS011;10295;49.812;9.866;2023-04-03T15:04:16;6.53;;;1.87;;
20271;SDS011;10295;49.812;9.866;2023-04-03T15:06:43;6.93;;;2.03;;
20271;SDS011;10295;49.812;9.866;2023-04-03T15:09:22;7.00;;;1.57;;
20271;SDS011;10295;49.812;9.866;2023-04-03T15:11:50;6.30;;;1.60;;
20271;SDS011;10295;49.812;9.866;2023-04-03T15:14:17;7.07;;;1.40;;
20271;SDS011;10295;49.812;9.866;2023-04-03T15:17:02;3.90;;;1.30;;
20271;SDS011;10295;49.812;9.866;2023-04-03T15:19:31;6.43;;;1.60;;
20271;SDS011;10295;49.812;9.866;2023-04-03T15:21:59;5.93;;;1.33;;
20271;SDS011;10295;49.812;9.866;2023-04-03T15:24:26;5.57;;;1.37;;
20271;SDS011;10295;49.812;9.866;2023-04-03T15:26:53;5.30;;;1.40;;
20271;SDS011;10295;49.812;9.866;2023-04-03T15:29:21;10.20;;;1.50;;
20271;SDS011;10295;49.812;9.866;2023-04-03T15:31:48;6.33;;;1.57;;
20271;SDS011;10295;49.812;9.866;2023-04-03T15:34:18;6.83;;;1.60;;
20271;SDS011;10295;49.812;9.866;2023-04-03T15:36:48;6.97;;;1.50;;
20271;SDS011;10295;49.812;9.866;2023-04-03T15:39:16;6.43;;;1.50;;
20271;SDS011;10295;49.812;9.866;2023-04-03T15:41:43;5.37;;;1.50;;
20271;SDS011;10295;49.812;9.866;2023-04-03T15:44:11;6.20;;;1.60;;
20271;SDS011;10295;49.812;9.866;2023-04-03T15:46:39;5.67;;;1.43;;
20271;SDS011;10295;49.812;9.866;2023-04-03T15:49:07;5.50;;;1.60;;
20271;SDS011;10295;49.812;9.866;2023-04-03T15:51:34;5.77;;;1.60;;
20271;SDS011;10295;49.812;9.866;2023-04-03T15:54:02;6.60;;;1.50;;
20271;SDS011;10295;49.812;9.866;2023-04-03T15:56:29;7.80;;;1.80;;
20271;SDS011;10295;49.812;9.866;2023-04-03T15:58:56;4.97;;;1.60;;
20271;SDS011;10295;49.812;9.866;2023-04-03T16:01:23;4.47;;;1.37;;
20271;SDS011;10295;49.812;9.866;2023-04-03T16:03:50;5.93;;;1.60;;
20271;SDS011;10295;49.812;9.866;2023-04-03T16:06:18;5.50;;;1.40;;
20271;SDS011;10295;49.812;9.866;2023-04-03T16:08:46;7.10;;;1.80;;
20271;SDS011;10295;49.812;9.866;2023-04-03T16:11:14;7.60;;;1.60;;
20271;SDS011;10295;49.812;9.866;2023-04-03T16:13:41;6.57;;;1.70;;
20271;SDS011;10295;49.812;9.866;2023-04-03T16:16:09;5.57;;;1.67;;
20271;SDS011;10295;49.812;9.866;2023-04-03T16:18:36;7.07;;;1.60;;
20271;SDS011;10295;49.812;9.866;2023-04-03T16:21:03;6.33;;;2.00;;
20271;SDS011;10295;49.812;9.866;2023-04-03T16:23:34;7.50;;;1.90;;
20271;SDS011;10295;49.812;9.866;2023-04-03T16:26:01;6.17;;;1.30;;